Terminal Aerodrome Forecast
Issued by NWS

Home | Current Version | Previous Version | Text Only | Print | Product List | Glossary On
Versions: 1 2 3 4 5 6 7 8 9 10 11 12 13 14
000
FTUS42 TJSJ 172300
TAFJBQ
TAF
TJBQ 172338Z 1800/1824 10004KT P6SM FEW025 SCT100
     FM181400 08013KT P6SM FEW030 SCT070
     FM181800 08013KT P6SM VCTS SCT025CB BKN040
     FM182200 09008KT P6SM VCSH SCT025 BKN040
      AMD NOT SKED 1802/1811=

USA.gov is the U.S. government's official web portal to all federal, state and local government web resources and services.